createdAt,value
2022-09-11T00:01:22.466Z,95516.78
2022-09-11T00:03:49.421Z,95506.66
2022-09-11T00:06:28.817Z,95508.94
2022-09-11T00:09:01.721Z,95500.72
2022-09-11T00:11:35.033Z,95505.06
2022-09-11T00:14:02.100Z,95499.59
2022-09-11T00:16:31.710Z,95495.72
2022-09-11T00:19:03.120Z,95496.84
2022-09-11T00:21:29.855Z,95493.34
2022-09-11T00:23:57.107Z,95491.38
2022-09-11T00:26:23.802Z,95496.84
2022-09-11T00:28:50.932Z,95493.69
2022-09-11T00:31:20.593Z,95494.47
2022-09-11T00:33:47.492Z,95488.22
2022-09-11T00:36:17.562Z,95490.81
2022-09-11T00:38:44.835Z,95498.69
2022-09-11T00:41:24.538Z,95486.16
2022-09-11T00:44:27.935Z,95490.03
2022-09-11T00:47:01.051Z,95486.16
2022-09-11T00:49:40.798Z,95489.34
2022-09-11T00:52:14.781Z,95488.56
2022-09-11T00:54:49.956Z,95483.88
2022-09-11T00:57:19.058Z,95489.34
2022-09-11T00:59:48.020Z,95480.00
2022-09-11T01:02:19.263Z,95485.47
2022-09-11T01:04:45.800Z,95489.78
2022-09-11T01:07:14.187Z,95488.66
2022-09-11T01:09:42.759Z,95491.38
2022-09-11T01:12:47.028Z,95487.41
2022-09-11T01:15:35.241Z,95496.28
2022-09-11T01:18:29.919Z,95486.16
2022-09-11T01:21:23.113Z,95481.03
2022-09-11T01:24:00.989Z,95484.56
2022-09-11T01:26:36.741Z,95486.16
2022-09-11T01:29:08.501Z,95488.09
2022-09-11T01:31:42.964Z,95495.50
2022-09-11T01:34:19.408Z,95493.47
2022-09-11T01:36:53.051Z,95494.59
2022-09-11T01:39:25.016Z,95477.75
2022-09-11T01:42:04.094Z,95484.38
2022-09-11T01:44:59.283Z,95482.31
2022-09-11T01:47:29.013Z,95473.78
2022-09-11T01:50:06.726Z,95476.50
2022-09-11T01:52:46.835Z,95481.16
2022-09-11T01:55:17.710Z,95478.09
2022-09-11T01:57:51.488Z,95473.44
2022-09-11T02:00:19.595Z,95475.00
2022-09-11T02:02:59.568Z,95477.75
2022-09-11T02:05:49.071Z,95476.16
2022-09-11T02:08:30.555Z,95471.13
2022-09-11T02:11:04.387Z,95468.84
2022-09-11T02:13:50.159Z,95473.88
2022-09-11T02:16:39.388Z,95469.53
2022-09-11T02:19:11.299Z,95463.28
2022-09-11T02:21:38.084Z,95469.53
2022-09-11T02:24:07.282Z,95464.06
2022-09-11T02:26:39.667Z,95460.88
2022-09-11T02:29:06.689Z,95464.41
2022-09-11T02:31:35.536Z,95471.94
2022-09-11T02:34:02.280Z,95465.56
2022-09-11T02:36:31.864Z,95467.97
2022-09-11T02:39:13.257Z,95464.75
2022-09-11T02:42:23.230Z,95458.06
2022-09-11T02:44:49.892Z,95467.50
2022-09-11T02:47:19.385Z,95464.75
2022-09-11T02:50:15.487Z,95459.28
2022-09-11T02:53:06.332Z,95471.81
2022-09-11T02:56:03.175Z,95462.84
2022-09-11T02:58:40.200Z,95471.03
2022-09-11T03:01:09.402Z,95471.03
2022-09-11T03:03:42.102Z,95464.31
2022-09-11T03:06:13.706Z,95472.53
2022-09-11T03:08:40.379Z,95466.59
2022-09-11T03:11:07.394Z,95466.59
2022-09-11T03:13:33.930Z,95463.88
2022-09-11T03:16:01.632Z,95464.22
2022-09-11T03:18:28.237Z,95461.00
2022-09-11T03:20:54.780Z,95468.44
2022-09-11T03:23:21.309Z,95465.25
2022-09-11T03:25:47.907Z,95462.53
2022-09-11T03:28:14.688Z,95455.44
2022-09-11T03:30:41.266Z,95464.78
2022-09-11T03:33:08.724Z,95457.41
2022-09-11T03:35:35.524Z,95464.78
2022-09-11T03:38:02.535Z,95462.03
2022-09-11T03:40:29.233Z,95462.84
2022-09-11T03:42:57.306Z,95465.25
2022-09-11T03:45:23.881Z,95456.56
2022-09-11T03:47:50.463Z,95454.19
2022-09-11T03:50:17.024Z,95449.53
2022-09-11T03:52:43.663Z,95456.13
2022-09-11T03:55:11.934Z,95443.16
2022-09-11T03:57:38.675Z,95444.75
2022-09-11T04:00:06.975Z,95447.50
2022-09-11T04:02:46.661Z,95450.22
2022-09-11T04:05:17.891Z,95455.69
2022-09-11T04:07:44.925Z,95458.88
2022-09-11T04:10:11.586Z,95450.66
2022-09-11T04:12:38.443Z,95445.97
2022-09-11T04:15:06.443Z,95447.94
2022-09-11T04:17:35.780Z,95447.94
2022-09-11T04:20:03.715Z,95449.88
2022-09-11T04:22:31.213Z,95448.72
2022-09-11T04:24:57.806Z,95440.88
2022-09-11T04:27:24.550Z,95439.63
2022-09-11T04:29:51.532Z,95447.03
2022-09-11T04:32:18.576Z,95435.28
2022-09-11T04:34:45.226Z,95438.03
2022-09-11T04:37:11.809Z,95440.75
2022-09-11T04:39:39.862Z,95435.63
2022-09-11T04:42:06.440Z,95428.25
2022-09-11T04:44:34.223Z,95447.38
2022-09-11T04:47:00.742Z,95439.19
2022-09-11T04:49:28.109Z,95446.91
2022-09-11T04:51:54.733Z,95439.97
2022-09-11T04:54:23.649Z,95444.66
2022-09-11T04:56:51.148Z,95448.63
2022-09-11T04:59:20.521Z,95451.34
2022-09-11T05:01:55.759Z,95458.09
2022-09-11T05:04:26.210Z,95461.25
2022-09-11T05:06:54.500Z,95457.06
2022-09-11T05:09:21.158Z,95459.09
2022-09-11T05:11:48.381Z,95455.19
2022-09-11T05:14:16.251Z,95454.06
2022-09-11T05:16:45.187Z,95458.84
2022-09-11T05:19:12.597Z,95458.84
2022-09-11T05:21:39.746Z,95457.38
2022-09-11T05:24:06.384Z,95459.75
2022-09-11T05:26:36.357Z,95465.22
2022-09-11T05:29:11.160Z,95463.63
2022-09-11T05:31:52.401Z,95458.59
2022-09-11T05:34:20.192Z,95464.06
2022-09-11T05:36:48.043Z,95466.34
2022-09-11T05:39:14.499Z,95468.75
2022-09-11T05:41:41.817Z,95472.63
2022-09-11T05:44:08.336Z,95471.47
2022-09-11T05:46:37.342Z,95469.53
2022-09-11T05:49:03.941Z,95467.97
2022-09-11T05:51:30.540Z,95481.25
2022-09-11T05:53:58.458Z,95482.41
2022-09-11T05:56:26.233Z,95484.81
2022-09-11T05:58:57.084Z,95487.91
2022-09-11T06:01:29.678Z,95489.84
2022-09-11T06:04:09.962Z,95487.53
2022-09-11T06:06:36.842Z,95490.72
2022-09-11T06:09:04.317Z,95493.47
2022-09-11T06:11:31.896Z,95495.06
2022-09-11T06:13:58.814Z,95497.44
2022-09-11T06:16:25.811Z,95488.91
2022-09-11T06:18:56.639Z,95488.22
2022-09-11T06:21:25.896Z,95506.66
2022-09-11T06:23:59.747Z,95494.56
2022-09-11T06:26:27.203Z,95496.97
2022-09-11T06:28:54.345Z,95499.78
2022-09-11T06:31:25.124Z,95498.66
2022-09-11T06:33:53.965Z,95497.53
2022-09-11T06:36:26.181Z,95507.78
2022-09-11T06:38:58.325Z,95505.47
2022-09-11T06:41:28.035Z,95495.09
2022-09-11T06:44:03.203Z,95509.13
2022-09-11T06:46:30.775Z,95504.53
2022-09-11T06:48:59.042Z,95504.53
2022-09-11T06:51:27.156Z,95507.72
2022-09-11T06:53:55.326Z,95510.22
2022-09-11T06:56:22.023Z,95507.59
2022-09-11T06:58:48.564Z,95512.34
2022-09-11T07:01:17.316Z,95523.41
2022-09-11T07:03:47.760Z,95520.41
2022-09-11T07:06:19.210Z,95515.84
2022-09-11T07:08:57.263Z,95516.75
2022-09-11T07:11:23.881Z,95520.34
2022-09-11T07:13:51.527Z,95502.34
2022-09-11T07:16:18.751Z,95515.91
2022-09-11T07:18:52.130Z,95525.03
2022-09-11T07:21:23.365Z,95521.94
2022-09-11T07:23:58.697Z,95525.13
2022-09-11T07:26:29.611Z,95531.47
2022-09-11T07:29:03.044Z,95526.00
2022-09-11T07:31:31.016Z,95522.56
2022-09-11T07:33:57.584Z,95531.66
2022-09-11T07:36:34.318Z,95530.97
2022-09-11T07:39:02.832Z,95534.22
2022-09-11T07:41:48.062Z,95531.34
2022-09-11T07:44:20.117Z,95540.91
2022-09-11T07:46:46.864Z,95545.69
2022-09-11T07:49:14.317Z,95541.78
2022-09-11T07:51:42.478Z,95545.81
2022-09-11T07:54:11.269Z,95534.00
2022-09-11T07:56:39.310Z,95553.97
2022-09-11T07:59:08.748Z,95557.16
2022-09-11T08:01:37.946Z,95563.44
2022-09-11T08:04:10.286Z,95564.31
2022-09-11T08:06:38.240Z,95575.91
2022-09-11T08:09:12.452Z,95555.75
2022-09-11T08:11:45.439Z,95566.19
2022-09-11T08:14:12.722Z,95571.50
2022-09-11T08:16:40.879Z,95549.31
2022-09-11T08:19:08.012Z,95565.59
2022-09-11T08:21:35.170Z,95572.84
2022-09-11T08:24:02.975Z,95577.69
2022-09-11T08:26:30.359Z,95570.00
2022-09-11T08:28:59.167Z,95579.53
2022-09-11T08:31:32.916Z,95573.78
2022-09-11T08:34:01.559Z,95577.41
2022-09-11T08:36:28.633Z,95582.50
2022-09-11T08:38:59.305Z,95590.03
2022-09-11T08:41:30.570Z,95589.25
2022-09-11T08:44:07.117Z,95589.31
2022-09-11T08:46:43.864Z,95585.34
2022-09-11T08:49:14.590Z,95587.81
2022-09-11T08:51:43.079Z,95598.78
2022-09-11T08:54:24.758Z,95591.25
2022-09-11T08:56:52.389Z,95587.81
2022-09-11T08:59:56.732Z,95603.03
2022-09-11T09:02:57.953Z,95604.28
2022-09-11T09:05:42.435Z,95594.44
2022-09-11T09:08:24.812Z,95602.25
2022-09-11T09:11:03.645Z,95603.38
2022-09-11T09:13:45.501Z,95608.44
2022-09-11T09:16:20.924Z,95610.47
2022-09-11T09:19:05.845Z,95607.72
2022-09-11T09:22:03.426Z,95618.28
2022-09-11T09:24:41.924Z,95620.66
2022-09-11T09:27:17.314Z,95614.28
2022-09-11T09:29:47.064Z,95616.19
2022-09-11T09:32:32.019Z,95614.50
2022-09-11T09:35:05.183Z,95618.94
2022-09-11T09:37:31.891Z,95620.59
2022-09-11T09:40:09.432Z,95614.53
2022-09-11T09:43:01.101Z,95622.47
2022-09-11T09:45:55.832Z,95616.44
2022-09-11T09:48:22.565Z,95621.13
2022-09-11T09:50:49.101Z,95628.91
2022-09-11T09:53:24.761Z,95642.06
2022-09-11T09:55:53.505Z,95634.19
2022-09-11T09:58:25.624Z,95634.38
2022-09-11T10:00:52.151Z,95631.44
2022-09-11T10:03:24.189Z,95637.88
2022-09-11T10:05:53.211Z,95642.81
2022-09-11T10:08:59.034Z,95639.44
2022-09-11T10:11:28.933Z,95643.66
2022-09-11T10:13:56.107Z,95647.09
2022-09-11T10:16:29.076Z,95645.06
2022-09-11T10:18:56.096Z,95643.94
2022-09-11T10:21:31.460Z,95643.94
2022-09-11T10:24:14.273Z,95636.16
2022-09-11T10:26:49.953Z,95641.28
2022-09-11T10:29:23.758Z,95642.53
2022-09-11T10:31:52.144Z,95648.88
2022-09-11T10:34:20.605Z,95640.75
2022-09-11T10:37:22.374Z,95645.66
2022-09-11T10:39:49.706Z,95652.09
2022-09-11T10:42:22.404Z,95650.34
2022-09-11T10:44:51.753Z,95651.00
2022-09-11T10:47:18.208Z,95640.66
2022-09-11T10:49:45.454Z,95643.13
2022-09-11T10:52:11.926Z,95649.88
2022-09-11T10:54:44.386Z,95654.34
2022-09-11T10:57:21.897Z,95656.44
2022-09-11T10:59:51.264Z,95656.09
2022-09-11T11:02:25.728Z,95659.00
2022-09-11T11:04:52.259Z,95668.84
2022-09-11T11:07:45.697Z,95668.91
2022-09-11T11:10:17.872Z,95669.91
2022-09-11T11:13:09.265Z,95666.16
2022-09-11T11:15:48.315Z,95667.56
2022-09-11T11:18:46.411Z,95657.13
2022-09-11T11:21:12.854Z,95655.00
2022-09-11T11:23:57.844Z,95662.16
2022-09-11T11:26:37.620Z,95656.03
2022-09-11T11:29:22.311Z,95662.50
2022-09-11T11:32:08.301Z,95661.78
2022-09-11T11:34:59.647Z,95658.81
2022-09-11T11:37:33.258Z,95666.91
2022-09-11T11:39:59.778Z,95662.63
2022-09-11T11:42:33.674Z,95664.56
2022-09-11T11:45:09.693Z,95668.94
2022-09-11T11:47:41.182Z,95669.63
2022-09-11T11:50:16.784Z,95669.13
2022-09-11T11:52:56.000Z,95677.44
2022-09-11T11:55:31.095Z,95680.81
2022-09-11T11:58:11.116Z,95682.97
2022-09-11T12:00:43.387Z,95684.84
2022-09-11T12:03:32.233Z,95682.03
2022-09-11T12:05:58.782Z,95688.72
2022-09-11T12:08:25.524Z,95688.44
2022-09-11T12:11:03.219Z,95690.47
2022-09-11T12:13:32.273Z,95691.38
2022-09-11T12:16:17.247Z,95687.38
2022-09-11T12:19:22.114Z,95685.97
2022-09-11T12:21:54.763Z,95682.13
2022-09-11T12:24:43.313Z,95683.81
2022-09-11T12:27:31.897Z,95684.00
2022-09-11T12:30:20.301Z,95678.75
2022-09-11T12:33:00.866Z,95678.63
2022-09-11T12:35:39.248Z,95666.31
2022-09-11T12:38:08.702Z,95670.16
2022-09-11T12:40:40.139Z,95676.72
2022-09-11T12:43:28.189Z,95674.63
2022-09-11T12:45:55.151Z,95667.00
2022-09-11T12:48:25.448Z,95671.94
2022-09-11T12:50:56.789Z,95666.91
2022-09-11T12:53:28.335Z,95669.09
2022-09-11T12:56:00.913Z,95671.66
2022-09-11T12:58:37.893Z,95676.59
2022-09-11T13:01:16.512Z,95676.81
2022-09-11T13:04:00.308Z,95679.75
2022-09-11T13:06:49.961Z,95672.00
2022-09-11T13:09:29.154Z,95674.97
2022-09-11T13:12:17.196Z,95666.00
2022-09-11T13:14:45.821Z,95668.09
2022-09-11T13:17:14.022Z,95663.00
2022-09-11T13:19:40.506Z,95658.91
2022-09-11T13:22:28.963Z,95661.72
2022-09-11T13:25:20.037Z,95669.19
2022-09-11T13:27:50.019Z,95673.03
2022-09-11T13:30:19.914Z,95668.50
2022-09-11T13:32:48.594Z,95671.72
2022-09-11T13:35:18.606Z,95680.38
2022-09-11T13:37:58.109Z,95675.75
2022-09-11T13:40:33.445Z,95675.38
2022-09-11T13:43:01.487Z,95673.53
2022-09-11T13:45:28.119Z,95670.72
2022-09-11T13:47:55.322Z,95676.22
2022-09-11T13:50:22.268Z,95677.31
2022-09-11T13:52:50.316Z,95680.78
2022-09-11T13:55:19.371Z,95673.41
2022-09-11T13:58:00.295Z,95675.06
2022-09-11T14:00:56.392Z,95673.88
2022-09-11T14:03:28.287Z,95674.28
2022-09-11T14:05:57.600Z,95674.28
2022-09-11T14:08:38.419Z,95671.91
2022-09-11T14:11:11.560Z,95677.47
2022-09-11T14:13:41.116Z,95671.22
2022-09-11T14:16:13.867Z,95665.44
2022-09-11T14:18:52.369Z,95671.44
2022-09-11T14:21:24.259Z,95670.72
2022-09-11T14:23:53.122Z,95664.91
2022-09-11T14:26:21.524Z,95663.03
2022-09-11T14:28:59.760Z,95667.00
2022-09-11T14:31:39.081Z,95668.69
2022-09-11T14:34:28.479Z,95658.88
2022-09-11T14:37:05.226Z,95667.53
2022-09-11T14:39:45.785Z,95664.84
2022-09-11T14:42:32.248Z,95675.91
2022-09-11T14:44:59.123Z,95680.41
2022-09-11T14:47:28.633Z,95672.25
2022-09-11T14:49:56.447Z,95674.69
2022-09-11T14:52:29.024Z,95672.81
2022-09-11T14:54:56.102Z,95675.28
2022-09-11T14:57:27.323Z,95667.13
2022-09-11T14:59:53.889Z,95668.78
2022-09-11T15:02:23.053Z,95657.84
2022-09-11T15:04:51.249Z,95656.44
2022-09-11T15:07:18.568Z,95662.44
2022-09-11T15:09:46.714Z,95668.56
2022-09-11T15:12:13.701Z,95662.25
2022-09-11T15:14:58.433Z,95654.72
2022-09-11T15:17:25.861Z,95653.22
2022-09-11T15:19:52.441Z,95655.97
2022-09-11T15:22:19.095Z,95651.19
2022-09-11T15:24:45.688Z,95657.03
2022-09-11T15:27:12.184Z,95659.34
2022-09-11T15:29:38.924Z,95654.50
2022-09-11T15:32:05.763Z,95652.44
2022-09-11T15:34:32.251Z,95655.00
2022-09-11T15:36:59.242Z,95651.78
2022-09-11T15:39:25.940Z,95655.66
2022-09-11T15:41:54.125Z,95660.28
2022-09-11T15:44:23.355Z,95657.13
2022-09-11T15:46:52.271Z,95659.47
2022-09-11T15:49:20.563Z,95659.81
2022-09-11T15:51:48.148Z,95655.91
2022-09-11T15:54:15.304Z,95659.09
2022-09-11T15:56:43.344Z,95648.66
2022-09-11T15:59:10.886Z,95654.59
2022-09-11T16:01:38.635Z,95653.00
2022-09-11T16:04:08.811Z,95651.56
2022-09-11T16:06:38.019Z,95658.78
2022-09-11T16:09:08.006Z,95647.81
2022-09-11T16:11:35.261Z,95650.19
2022-09-11T16:14:02.399Z,95645.84
2022-09-11T16:16:29.024Z,95641.50
2022-09-11T16:18:55.558Z,95649.34
2022-09-11T16:21:22.201Z,95645.75
2022-09-11T16:23:53.725Z,95647.66
2022-09-11T16:26:22.736Z,95648.00
2022-09-11T16:28:49.401Z,95651.06
2022-09-11T16:31:16.455Z,95648.25
2022-09-11T16:33:44.412Z,95652.13
2022-09-11T16:36:17.150Z,95658.41
2022-09-11T16:38:44.764Z,95658.25
2022-09-11T16:41:16.960Z,95652.25
2022-09-11T16:43:46.196Z,95647.88
2022-09-11T16:46:15.089Z,95647.38
2022-09-11T16:48:42.214Z,95650.00
2022-09-11T16:51:08.717Z,95656.22
2022-09-11T16:53:35.568Z,95655.75
2022-09-11T16:56:07.470Z,95655.63
2022-09-11T16:58:34.315Z,95655.16
2022-09-11T17:01:08.960Z,95653.78
2022-09-11T17:03:41.257Z,95647.81
2022-09-11T17:06:08.617Z,95647.66
2022-09-11T17:08:35.649Z,95651.09
2022-09-11T17:11:02.621Z,95637.59
2022-09-11T17:13:29.217Z,95641.34
2022-09-11T17:16:05.027Z,95635.69
2022-09-11T17:18:32.201Z,95633.97
2022-09-11T17:21:03.960Z,95641.28
2022-09-11T17:23:31.291Z,95630.97
2022-09-11T17:25:57.831Z,95639.06
2022-09-11T17:28:24.748Z,95629.88
2022-09-11T17:30:51.230Z,95632.50
2022-09-11T17:33:18.092Z,95631.56
2022-09-11T17:35:44.556Z,95625.94
2022-09-11T17:38:11.133Z,95630.81
2022-09-11T17:40:37.703Z,95635.00
2022-09-11T17:43:04.198Z,95641.47
2022-09-11T17:45:30.926Z,95646.81
2022-09-11T17:47:57.703Z,95647.44
2022-09-11T17:50:24.484Z,95643.38
2022-09-11T17:52:50.961Z,95643.22
2022-09-11T17:55:17.560Z,95643.84
2022-09-11T17:57:44.540Z,95650.75
2022-09-11T18:00:12.215Z,95646.72
2022-09-11T18:02:38.979Z,95645.75
2022-09-11T18:05:06.005Z,95648.72
2022-09-11T18:07:32.637Z,95657.59
2022-09-11T18:09:59.137Z,95663.34
2022-09-11T18:12:25.601Z,95662.81
2022-09-11T18:14:52.139Z,95655.19
2022-09-11T18:17:18.676Z,95661.28
2022-09-11T18:19:45.174Z,95658.03
2022-09-11T18:22:11.660Z,95666.47
2022-09-11T18:24:39.862Z,95668.69
2022-09-11T18:27:06.635Z,95668.16
2022-09-11T18:29:33.189Z,95669.53
2022-09-11T18:32:00.180Z,95673.69
2022-09-11T18:34:27.575Z,95668.03
2022-09-11T18:36:54.324Z,95669.06
2022-09-11T18:39:21.611Z,95664.97
2022-09-11T18:41:50.071Z,95659.75
2022-09-11T18:44:20.020Z,95658.06
2022-09-11T18:46:47.372Z,95657.50
2022-09-11T18:49:15.324Z,95659.81
2022-09-11T18:51:42.247Z,95658.91
2022-09-11T18:54:15.848Z,95653.78
2022-09-11T18:56:42.780Z,95660.06
2022-09-11T18:59:11.237Z,95666.31
2022-09-11T19:01:37.967Z,95666.31
2022-09-11T19:04:11.537Z,95668.28
2022-09-11T19:06:39.167Z,95668.28
2022-09-11T19:09:07.588Z,95671.00
2022-09-11T19:11:34.085Z,95669.06
2022-09-11T19:14:05.874Z,95676.16
2022-09-11T19:16:33.144Z,95673.75
2022-09-11T19:19:00.350Z,95669.41
2022-09-11T19:21:27.666Z,95674.09
2022-09-11T19:23:57.997Z,95681.41
2022-09-11T19:26:25.800Z,95672.75
2022-09-11T19:28:53.933Z,95683.59
2022-09-11T19:31:21.395Z,95680.53
2022-09-11T19:33:48.277Z,95684.19
2022-09-11T19:36:17.241Z,95688.06
2022-09-11T19:38:45.968Z,95689.19
2022-09-11T19:41:15.211Z,95687.50
2022-09-11T19:43:42.732Z,95690.88
2022-09-11T19:46:12.879Z,95687.25
2022-09-11T19:48:40.773Z,95692.28
2022-09-11T19:51:12.722Z,95691.72
2022-09-11T19:53:40.592Z,95693.53
2022-09-11T19:56:08.320Z,95686.38
2022-09-11T19:58:35.368Z,95690.16
2022-09-11T20:01:06.921Z,95692.31
2022-09-11T20:03:33.460Z,95694.13
2022-09-11T20:06:00.424Z,95690.50
2022-09-11T20:08:27.470Z,95692.66
2022-09-11T20:10:53.950Z,95692.88
2022-09-11T20:13:20.408Z,95691.16
2022-09-11T20:15:47.094Z,95691.84
2022-09-11T20:18:13.705Z,95684.22
2022-09-11T20:20:44.807Z,95688.75
2022-09-11T20:23:12.035Z,95690.59
2022-09-11T20:25:38.652Z,95698.69
2022-09-11T20:28:05.273Z,95704.03
2022-09-11T20:30:32.949Z,95694.91
2022-09-11T20:33:00.694Z,95695.16
2022-09-11T20:35:27.333Z,95700.81
2022-09-11T20:37:54.055Z,95694.44
2022-09-11T20:40:20.541Z,95694.63
2022-09-11T20:42:47.358Z,95704.34
2022-09-11T20:45:13.879Z,95696.31
2022-09-11T20:47:40.468Z,95700.53
2022-09-11T20:50:07.781Z,95699.59
2022-09-11T20:52:38.752Z,95688.88
2022-09-11T20:55:07.179Z,95700.97
2022-09-11T20:57:33.719Z,95694.09
2022-09-11T21:00:00.725Z,95692.84
2022-09-11T21:02:27.527Z,95690.78
2022-09-11T21:04:54.025Z,95687.59
2022-09-11T21:07:20.507Z,95683.91
2022-09-11T21:09:46.978Z,95681.84
2022-09-11T21:12:13.559Z,95681.75
2022-09-11T21:14:41.995Z,95678.06
2022-09-11T21:17:08.526Z,95672.16
2022-09-11T21:19:35.078Z,95675.53
2022-09-11T21:22:01.522Z,95676.69
2022-09-11T21:24:28.030Z,95683.63
2022-09-11T21:26:54.578Z,95676.88
2022-09-11T21:29:21.367Z,95675.63
2022-09-11T21:31:47.894Z,95677.88
2022-09-11T21:34:14.540Z,95680.94
2022-09-11T21:36:41.028Z,95683.22
2022-09-11T21:39:07.730Z,95683.56
2022-09-11T21:41:34.321Z,95682.31
2022-09-11T21:44:00.946Z,95688.91
2022-09-11T21:46:27.576Z,95686.84
2022-09-11T21:48:54.150Z,95679.31
2022-09-11T21:51:20.955Z,95685.09
2022-09-11T21:53:49.284Z,95686.09
2022-09-11T21:56:22.066Z,95683.69
2022-09-11T21:58:48.871Z,95680.84
2022-09-11T22:01:15.510Z,95688.56
2022-09-11T22:03:42.081Z,95679.09
2022-09-11T22:06:10.325Z,95677.84
2022-09-11T22:08:38.241Z,95680.44
2022-09-11T22:11:04.900Z,95684.97
2022-09-11T22:13:32.772Z,95687.22
2022-09-11T22:15:59.444Z,95687.09
2022-09-11T22:18:26.125Z,95692.09
2022-09-11T22:20:52.601Z,95679.88
2022-09-11T22:23:20.367Z,95683.28
2022-09-11T22:25:46.859Z,95675.72
2022-09-11T22:28:13.665Z,95685.38
2022-09-11T22:30:44.333Z,95683.66
2022-09-11T22:33:10.970Z,95687.16
2022-09-11T22:35:37.603Z,95687.03
2022-09-11T22:38:04.076Z,95683.03
2022-09-11T22:40:30.619Z,95679.03
2022-09-11T22:42:57.107Z,95676.16
2022-09-11T22:45:23.775Z,95686.59
2022-09-11T22:47:50.288Z,95680.19
2022-09-11T22:50:17.033Z,95683.59
2022-09-11T22:52:43.484Z,95678.78
2022-09-11T22:55:10.697Z,95686.81
2022-09-11T22:57:38.358Z,95674.19
2022-09-11T23:00:08.627Z,95674.03
2022-09-11T23:02:35.735Z,95670.03
2022-09-11T23:05:03.258Z,95668.78
2022-09-11T23:07:29.788Z,95671.38
2022-09-11T23:09:56.225Z,95664.63
2022-09-11T23:12:22.790Z,95658.72
2022-09-11T23:14:49.262Z,95653.94
2022-09-11T23:17:15.791Z,95661.59
2022-09-11T23:19:42.314Z,95661.47
2022-09-11T23:22:08.753Z,95662.13
2022-09-11T23:24:35.318Z,95653.47
2022-09-11T23:27:01.831Z,95658.47
2022-09-11T23:29:28.338Z,95648.69
2022-09-11T23:31:56.501Z,95657.19
2022-09-11T23:34:23.194Z,95653.19
2022-09-11T23:36:49.690Z,95647.25
2022-09-11T23:39:16.303Z,95642.94
2022-09-11T23:41:42.787Z,95646.78
2022-09-11T23:44:09.475Z,95647.91
2022-09-11T23:46:35.933Z,95643.59
2022-09-11T23:49:02.515Z,95639.59
2022-09-11T23:51:29.020Z,95638.00
2022-09-11T23:53:55.531Z,95634.81
2022-09-11T23:56:22.174Z,95637.84
2022-09-11T23:58:49.727Z,95641.69
